Time;durP1;ratioP1;P1;durP2;ratioP2;P2;SDS_P1;SDS_P2;PMS_P1;PMS_P2;Temp;Humidity;BMP_temperature;BMP_pressure;BME280_temperature;BME280_humidity;BME280_pressure;Samples;Min_cycle;Max_cycle;Signal;HPM_P1;HPM_P2
2022/01/28 00:02:46;;;;;;;24.73;10.10;;;4.10;99.90;;;;;;5080484;28;20237;-66
2022/01/28 00:05:19;;;;;;;17.30;10.00;;;4.10;99.90;;;;;;5063318;28;20208;-65
2022/01/28 00:07:47;;;;;;;19.00;9.03;;;4.10;99.90;;;;;;5071263;28;20272;-65
2022/01/28 00:10:16;;;;;;;19.70;9.33;;;4.10;99.90;;;;;;5066776;28;20224;-66
2022/01/28 00:15:44;;;;;;;24.63;9.60;;;4.10;99.90;;;;;;5047849;28;20222;-66
2022/01/28 00:40:33;;;;;;;28.87;9.10;;;3.60;99.90;;;;;;5068669;28;20204;-66
2022/01/28 00:43:04;;;;;;;27.17;9.60;;;3.60;99.90;;;;;;5074367;28;20235;-66
2022/01/28 00:45:34;;;;;;;22.23;9.40;;;3.60;99.90;;;;;;5070258;28;20750;-66
2022/01/28 00:48:03;;;;;;;33.07;10.23;;;3.60;99.90;;;;;;5069346;28;20210;-66
2022/01/28 00:50:31;;;;;;;27.03;9.23;;;3.60;99.90;;;;;;5068930;28;20248;-66
2022/01/28 00:53:00;;;;;;;24.93;9.73;;;3.50;99.90;;;;;;5068565;28;20201;-66
2022/01/28 00:55:28;;;;;;;25.00;9.87;;;3.40;99.90;;;;;;5059202;28;20204;-66
2022/01/28 00:57:57;;;;;;;18.17;9.30;;;3.40;99.90;;;;;;5066978;28;20199;-65
2022/01/28 01:00:25;;;;;;;23.37;8.77;;;3.40;99.90;;;;;;5064560;28;20183;-66
2022/01/28 01:03:13;;;;;;;25.87;9.63;;;3.30;99.90;;;;;;5072205;28;20204;-66
2022/01/28 01:05:42;;;;;;;23.93;9.63;;;3.30;99.90;;;;;;5065144;28;20237;-66
2022/01/28 01:08:11;;;;;;;20.70;9.33;;;3.30;99.90;;;;;;5065792;28;20706;-65
2022/01/28 01:10:39;;;;;;;32.53;9.20;;;3.30;99.90;;;;;;5076475;28;20763;-66
2022/01/28 01:13:08;;;;;;;14.67;8.77;;;3.20;99.90;;;;;;5069129;28;20185;-65
2022/01/28 01:15:40;;;;;;;19.80;8.87;;;3.10;99.90;;;;;;5066782;28;20227;-65
2022/01/28 01:18:16;;;;;;;26.03;9.87;;;3.00;99.90;;;;;;5069909;28;20275;-65
2022/01/28 01:20:59;;;;;;;21.73;9.10;;;2.90;99.90;;;;;;5059756;28;20238;-66
2022/01/28 01:23:31;;;;;;;25.63;9.83;;;2.80;99.90;;;;;;5068885;28;20278;-66
2022/01/28 01:26:07;;;;;;;24.50;9.90;;;2.80;99.90;;;;;;5068549;28;20200;-65
2022/01/28 01:28:39;;;;;;;21.77;9.30;;;2.90;99.90;;;;;;5066881;28;20196;-65
2022/01/28 01:31:12;;;;;;;23.83;10.40;;;2.80;99.90;;;;;;5064576;28;20219;-65
2022/01/28 01:33:46;;;;;;;25.10;9.50;;;2.90;99.90;;;;;;5064268;28;20591;-64
2022/01/28 01:36:16;;;;;;;25.07;9.50;;;2.90;99.90;;;;;;5064901;28;20203;-66
2022/01/28 01:38:44;;;;;;;23.17;9.63;;;2.90;99.90;;;;;;5076286;28;20280;-65
2022/01/28 01:41:19;;;;;;;20.23;10.03;;;2.90;99.90;;;;;;5070025;28;20192;-65
2022/01/28 01:43:58;;;;;;;29.17;10.80;;;2.90;99.90;;;;;;5067455;28;20250;-65
2022/01/28 01:46:38;;;;;;;24.13;10.00;;;2.90;99.90;;;;;;5068097;28;20269;-66
2022/01/28 01:52:05;;;;;;;32.23;10.87;;;2.90;99.90;;;;;;5071962;28;20203;-65
2022/01/28 01:54:38;;;;;;;27.80;10.70;;;2.90;99.90;;;;;;5069001;28;20719;-65
2022/01/28 01:57:08;;;;;;;26.60;11.17;;;2.80;99.90;;;;;;5066703;28;20200;-65
2022/01/28 01:59:38;;;;;;;25.70;11.37;;;2.80;99.90;;;;;;5065919;28;20468;-65
2022/01/28 02:02:07;;;;;;;34.70;11.10;;;2.70;99.90;;;;;;5065502;28;20203;-66
2022/01/28 02:04:38;;;;;;;32.03;11.97;;;2.70;99.90;;;;;;5068083;28;20207;-65
2022/01/28 02:07:09;;;;;;;32.63;11.10;;;2.70;99.90;;;;;;5063419;28;20204;-65
2022/01/28 02:09:37;;;;;;;25.70;10.87;;;2.70;99.90;;;;;;5065235;28;20250;-65
2022/01/28 02:12:07;;;;;;;27.47;10.60;;;2.60;99.90;;;;;;5067837;28;20200;-66
2022/01/28 02:14:36;;;;;;;28.10;10.27;;;2.50;99.90;;;;;;5068325;28;20204;-65
2022/01/28 02:17:05;;;;;;;29.57;11.17;;;2.40;99.90;;;;;;5069085;28;20288;-65
2022/01/28 02:19:34;;;;;;;26.37;10.17;;;2.30;99.90;;;;;;5063729;28;20562;-65
2022/01/28 02:22:05;;;;;;;22.23;10.60;;;2.20;99.90;;;;;;5067181;28;20211;-66
2022/01/28 02:24:40;;;;;;;26.13;10.37;;;2.20;99.90;;;;;;5066932;28;20224;-65
2022/01/28 02:27:10;;;;;;;21.73;11.23;;;2.10;99.90;;;;;;5083383;28;20196;-65
2022/01/28 02:29:40;;;;;;;21.07;9.93;;;2.10;99.90;;;;;;5062694;28;20212;-65
2022/01/28 02:32:09;;;;;;;24.27;10.50;;;2.00;99.90;;;;;;5069694;28;20199;-65
2022/01/28 02:34:40;;;;;;;24.63;10.63;;;2.00;99.90;;;;;;5066243;28;20203;-65
2022/01/28 02:37:10;;;;;;;26.07;10.33;;;2.10;99.90;;;;;;5098896;28;20228;-65
2022/01/28 02:39:39;;;;;;;22.43;11.20;;;2.10;99.90;;;;;;5068296;28;20221;-65
2022/01/28 02:42:17;;;;;;;27.80;12.07;;;2.10;99.90;;;;;;5071828;28;20200;-65
2022/01/28 02:44:49;;;;;;;27.27;11.73;;;2.20;99.90;;;;;;5060589;28;20235;-65
2022/01/28 02:47:29;;;;;;;29.23;11.03;;;2.10;99.90;;;;;;5061363;28;20203;-65
2022/01/28 02:49:58;;;;;;;23.13;9.67;;;2.10;99.90;;;;;;5062253;28;20227;-65
2022/01/28 02:52:36;;;;;;;30.23;10.83;;;2.00;99.90;;;;;;5071079;28;20218;-65
2022/01/28 02:55:10;;;;;;;24.43;10.47;;;2.00;99.90;;;;;;5071606;28;20713;-65
2022/01/28 02:57:43;;;;;;;24.17;10.50;;;2.00;99.90;;;;;;5080271;28;20199;-65
2022/01/28 03:00:13;;;;;;;26.80;10.70;;;2.00;99.90;;;;;;5073318;28;20218;-65
2022/01/28 03:02:42;;;;;;;31.33;11.00;;;2.10;99.90;;;;;;5069316;28;20184;-65
2022/01/28 03:05:30;;;;;;;32.27;10.87;;;2.10;99.90;;;;;;5071559;28;20274;-65
2022/01/28 03:08:03;;;;;;;31.10;11.43;;;2.10;99.90;;;;;;5069064;28;20199;-65
2022/01/28 03:10:41;;;;;;;29.40;11.83;;;2.20;99.90;;;;;;5066791;28;20307;-65
2022/01/28 03:13:30;;;;;;;34.23;11.57;;;2.20;99.90;;;;;;5062011;28;20206;-65
2022/01/28 03:16:08;;;;;;;24.47;12.30;;;2.20;99.90;;;;;;5076273;28;20196;-65
2022/01/28 03:21:39;;;;;;;40.07;12.07;;;2.10;99.90;;;;;;5064080;28;20597;-65
2022/01/28 03:24:11;;;;;;;32.70;11.47;;;2.10;99.90;;;;;;5069708;28;20187;-65
2022/01/28 03:26:40;;;;;;;33.07;12.10;;;2.20;99.90;;;;;;5057981;28;20292;-65
2022/01/28 03:29:09;;;;;;;37.83;12.53;;;2.20;99.90;;;;;;5062565;28;20239;-65
2022/01/28 03:31:38;;;;;;;27.30;11.57;;;2.20;99.90;;;;;;5077533;28;20216;-65
2022/01/28 03:34:07;;;;;;;28.40;13.43;;;2.30;99.90;;;;;;5065849;28;20188;-65
2022/01/28 03:36:36;;;;;;;30.47;13.07;;;2.30;99.90;;;;;;5072995;28;20192;-65
2022/01/28 03:39:07;;;;;;;36.30;12.70;;;2.30;99.90;;;;;;5066095;28;20226;-65
2022/01/28 03:41:37;;;;;;;32.33;12.33;;;2.20;99.90;;;;;;5067928;28;20184;-65
2022/01/28 03:44:07;;;;;;;35.27;13.07;;;2.10;99.90;;;;;;5059811;28;20233;-65
2022/01/28 03:46:35;;;;;;;32.97;13.40;;;2.00;99.90;;;;;;5065179;28;20200;-65
2022/01/28 03:49:04;;;;;;;34.17;14.43;;;1.90;99.90;;;;;;5067273;28;20370;-65
2022/01/28 03:51:33;;;;;;;37.97;13.27;;;1.90;99.90;;;;;;5065339;28;20254;-65
2022/01/28 03:54:02;;;;;;;28.00;13.50;;;1.90;99.90;;;;;;5068851;28;20565;-65
2022/01/28 03:56:30;;;;;;;35.37;13.83;;;1.90;99.90;;;;;;5070438;28;20241;-65
2022/01/28 03:59:00;;;;;;;37.70;14.37;;;2.00;99.90;;;;;;5070058;28;20550;-65
2022/01/28 04:01:34;;;;;;;34.60;12.90;;;2.00;99.90;;;;;;5064317;28;20203;-65
2022/01/28 04:12:23;;;;;;;38.80;13.50;;;1.90;99.90;;;;;;5071222;28;20231;-65
2022/01/28 04:15:06;;;;;;;42.30;14.27;;;1.90;99.90;;;;;;5068853;28;20652;-65
2022/01/28 04:17:34;;;;;;;39.23;14.43;;;2.00;99.90;;;;;;5064902;28;20252;-65
2022/01/28 04:20:04;;;;;;;40.63;15.10;;;1.90;99.90;;;;;;5066382;28;20665;-65
2022/01/28 04:22:32;;;;;;;32.53;13.80;;;1.90;99.90;;;;;;5067593;28;20193;-65
2022/01/28 04:25:01;;;;;;;36.83;14.10;;;1.70;99.90;;;;;;5069299;28;20203;-65
2022/01/28 04:27:30;;;;;;;44.33;14.80;;;1.70;99.90;;;;;;5060111;28;20554;-65
2022/01/28 04:29:59;;;;;;;34.33;14.37;;;1.70;99.90;;;;;;5072320;28;20189;-65
2022/01/28 04:32:29;;;;;;;35.80;14.87;;;1.80;99.90;;;;;;5060479;28;20220;-65
2022/01/28 04:34:59;;;;;;;36.97;14.70;;;1.80;99.90;;;;;;5066561;28;21022;-65
2022/01/28 04:37:34;;;;;;;36.93;14.90;;;1.80;99.90;;;;;;5057813;28;20606;-65
2022/01/28 04:40:10;;;;;;;40.07;15.63;;;1.80;99.90;;;;;;5071039;28;20221;-65
2022/01/28 04:45:30;;;;;;;40.60;16.63;;;1.80;99.90;;;;;;5067188;28;20576;-65
2022/01/28 04:48:10;;;;;;;36.17;16.73;;;1.80;99.90;;;;;;5063840;28;20215;-65
2022/01/28 04:50:49;;;;;;;37.77;16.53;;;1.90;99.90;;;;;;5066564;28;20199;-65
2022/01/28 04:53:31;;;;;;;52.93;18.63;;;1.90;99.90;;;;;;5062937;28;20794;-65
2022/01/28 04:56:15;;;;;;;39.77;18.10;;;2.00;99.90;;;;;;5066372;28;20468;-65
2022/01/28 04:58:55;;;;;;;48.87;18.90;;;2.10;99.90;;;;;;5064230;28;21248;-65
2022/01/28 05:04:23;;;;;;;59.70;19.03;;;2.00;99.90;;;;;;5068256;28;20596;-65
2022/01/28 05:15:44;;;;;;;44.67;20.57;;;2.20;99.90;;;;;;5064467;28;20751;-65
2022/01/28 05:26:58;;;;;;;46.13;20.97;;;2.30;99.90;;;;;;5062801;28;20196;-65
2022/01/28 05:29:26;;;;;;;56.03;21.23;;;2.20;99.90;;;;;;5066712;28;20289;-65
2022/01/28 05:31:55;;;;;;;51.97;20.53;;;2.20;99.90;;;;;;5069055;28;20252;-65
2022/01/28 05:34:27;;;;;;;58.93;23.20;;;2.20;99.90;;;;;;5065422;28;20598;-65
2022/01/28 05:36:56;;;;;;;54.60;21.30;;;2.20;99.90;;;;;;5066514;28;20200;-65
2022/01/28 05:39:24;;;;;;;59.53;22.37;;;2.20;99.90;;;;;;5072200;28;20674;-65
2022/01/28 05:41:53;;;;;;;55.50;23.13;;;2.20;99.90;;;;;;5063934;28;20757;-65
2022/01/28 05:44:23;;;;;;;61.03;23.73;;;2.20;99.90;;;;;;5054962;28;20643;-65
2022/01/28 05:46:52;;;;;;;58.80;22.43;;;2.10;99.90;;;;;;5065394;28;20669;-65
2022/01/28 05:49:20;;;;;;;62.03;23.43;;;2.00;99.90;;;;;;5068212;28;20307;-65
2022/01/28 05:51:51;;;;;;;53.90;23.63;;;2.10;99.90;;;;;;5064617;28;20570;-65
2022/01/28 05:54:19;;;;;;;52.57;24.10;;;2.20;99.90;;;;;;5046702;28;20666;-65
2022/01/28 05:56:47;;;;;;;54.10;24.33;;;2.30;99.90;;;;;;5068607;28;20203;-65
2022/01/28 05:59:16;;;;;;;61.63;24.23;;;2.30;99.90;;;;;;5062283;28;20196;-65
2022/01/28 06:01:45;;;;;;;65.63;25.20;;;2.20;99.90;;;;;;5062727;28;20759;-65
2022/01/28 06:04:15;;;;;;;60.13;23.93;;;2.10;99.90;;;;;;5064254;28;20199;-65
2022/01/28 06:06:44;;;;;;;58.47;24.63;;;2.10;99.90;;;;;;5062744;28;20184;-65
2022/01/28 06:09:14;;;;;;;58.80;23.90;;;2.10;99.90;;;;;;5075693;28;20257;-65
2022/01/28 06:11:43;;;;;;;65.47;26.17;;;2.10;99.90;;;;;;5059407;28;20728;-65
2022/01/28 06:14:12;;;;;;;60.60;25.17;;;2.30;99.90;;;;;;5065463;28;20294;-66
2022/01/28 06:16:40;;;;;;;56.63;24.63;;;2.20;99.90;;;;;;5064657;28;20193;-65
2022/01/28 06:19:08;;;;;;;65.60;25.33;;;2.10;99.90;;;;;;5051739;28;20242;-65
2022/01/28 06:21:37;;;;;;;67.07;26.17;;;2.10;99.90;;;;;;5061423;28;20215;-65
2022/01/28 06:24:06;;;;;;;63.03;26.37;;;2.10;99.90;;;;;;5071784;28;20291;-65
2022/01/28 06:26:36;;;;;;;64.17;25.23;;;2.10;99.90;;;;;;5061259;28;20886;-65
2022/01/28 06:29:04;;;;;;;67.03;25.70;;;2.10;99.90;;;;;;5073816;28;20934;-65
2022/01/28 06:31:33;;;;;;;73.23;26.13;;;2.10;99.90;;;;;;5067116;28;20708;-65
2022/01/28 06:34:01;;;;;;;64.50;27.37;;;2.00;99.90;;;;;;5073668;28;20764;-65
2022/01/28 06:36:30;;;;;;;67.70;26.23;;;1.90;99.90;;;;;;5074874;28;20253;-65
2022/01/28 06:38:58;;;;;;;62.30;26.33;;;2.00;99.90;;;;;;5074612;28;20203;-65
2022/01/28 06:41:27;;;;;;;75.03;27.40;;;2.00;99.90;;;;;;5077696;28;20236;-65
2022/01/28 06:43:57;;;;;;;72.83;26.20;;;2.00;99.90;;;;;;5076402;28;20224;-65
2022/01/28 06:46:26;;;;;;;58.67;26.87;;;2.00;99.90;;;;;;5075778;28;20204;-65
2022/01/28 06:48:54;;;;;;;65.20;27.27;;;2.10;99.90;;;;;;5082684;28;20231;-65
2022/01/28 06:51:23;;;;;;;67.20;26.67;;;2.10;99.90;;;;;;5074675;28;20192;-65
2022/01/28 06:53:51;;;;;;;72.50;28.70;;;2.10;99.90;;;;;;5064675;28;20685;-65
2022/01/28 06:56:20;;;;;;;69.53;28.60;;;2.10;99.90;;;;;;5066515;28;20607;-65
2022/01/28 06:58:49;;;;;;;88.20;30.10;;;2.10;99.90;;;;;;5075177;28;20198;-65
2022/01/28 07:01:24;;;;;;;64.83;29.37;;;2.20;99.90;;;;;;5079803;28;20184;-65
2022/01/28 07:03:53;;;;;;;65.93;29.33;;;2.20;99.90;;;;;;5069339;28;20986;-65
2022/01/28 07:06:23;;;;;;;72.03;30.13;;;2.10;99.90;;;;;;5072602;28;20200;-65
2022/01/28 07:08:51;;;;;;;70.70;30.70;;;2.10;99.90;;;;;;5064282;28;20219;-65
2022/01/28 07:11:20;;;;;;;80.30;31.13;;;2.20;99.90;;;;;;5063371;28;20200;-65
2022/01/28 07:13:49;;;;;;;80.57;31.87;;;2.20;99.90;;;;;;5068762;28;20212;-65
2022/01/28 07:16:17;;;;;;;69.60;30.27;;;2.20;99.90;;;;;;5064555;28;20287;-65
2022/01/28 07:18:47;;;;;;;73.67;32.57;;;2.20;99.90;;;;;;5049529;28;20218;-65
2022/01/28 07:21:16;;;;;;;81.43;34.20;;;2.20;99.90;;;;;;5074383;28;20192;-65
2022/01/28 07:23:45;;;;;;;78.93;33.17;;;2.30;99.90;;;;;;5069409;28;20183;-65
2022/01/28 07:26:14;;;;;;;78.13;32.67;;;2.20;99.90;;;;;;5067041;28;20231;-66
2022/01/28 07:28:43;;;;;;;81.23;33.00;;;2.10;99.90;;;;;;5064800;28;20842;-65
2022/01/28 07:31:14;;;;;;;72.97;32.90;;;2.10;99.90;;;;;;5071708;28;20254;-65
2022/01/28 07:33:43;;;;;;;90.63;33.23;;;2.10;99.90;;;;;;5062781;28;20208;-65
2022/01/28 07:36:13;;;;;;;84.67;32.53;;;2.00;99.90;;;;;;5059861;28;20649;-65
2022/01/28 07:38:45;;;;;;;82.67;32.43;;;1.90;99.90;;;;;;5071623;28;20713;-65
2022/01/28 07:41:13;;;;;;;97.77;32.60;;;1.90;99.90;;;;;;5071130;28;20655;-65
2022/01/28 07:43:42;;;;;;;91.53;31.60;;;1.80;99.90;;;;;;5077522;28;20226;-65
2022/01/28 07:46:11;;;;;;;89.00;33.07;;;1.80;99.90;;;;;;5067526;28;20735;-65
2022/01/28 07:48:39;;;;;;;83.37;32.50;;;1.80;99.90;;;;;;5071932;28;20225;-66
2022/01/28 07:51:08;;;;;;;77.47;33.13;;;1.80;99.90;;;;;;5065146;28;20211;-65
2022/01/28 07:53:38;;;;;;;83.77;34.23;;;1.90;99.90;;;;;;5058343;28;20220;-65
2022/01/28 07:56:07;;;;;;;102.17;34.97;;;1.90;99.90;;;;;;5063330;28;20230;-65
2022/01/28 07:58:35;;;;;;;82.87;32.97;;;2.00;99.90;;;;;;5053515;28;20291;-65
2022/01/28 08:01:04;;;;;;;103.23;35.73;;;2.10;99.90;;;;;;5060900;28;20202;-65
2022/01/28 08:03:33;;;;;;;80.10;34.97;;;2.10;99.90;;;;;;5060716;28;20208;-65
2022/01/28 08:06:02;;;;;;;96.47;36.10;;;2.20;99.90;;;;;;5063380;28;20571;-65
2022/01/28 08:08:31;;;;;;;81.90;34.60;;;2.30;99.90;;;;;;5066003;28;20621;-65
2022/01/28 08:11:01;;;;;;;91.07;36.20;;;2.40;99.90;;;;;;5060893;28;20211;-65
2022/01/28 08:13:30;;;;;;;110.37;37.87;;;2.40;99.90;;;;;;5063350;28;20244;-65
2022/01/28 08:15:59;;;;;;;88.47;36.50;;;2.40;99.90;;;;;;5064034;28;20207;-65
2022/01/28 08:18:27;;;;;;;101.20;39.17;;;2.50;99.90;;;;;;5061638;28;20662;-65
2022/01/28 08:20:58;;;;;;;95.20;38.43;;;2.50;99.90;;;;;;5063951;28;20543;-65
2022/01/28 08:23:27;;;;;;;96.77;39.27;;;2.60;99.90;;;;;;5066014;28;20626;-65
2022/01/28 08:25:56;;;;;;;109.63;43.53;;;2.70;99.90;;;;;;5060575;28;20703;-65
2022/01/28 08:28:26;;;;;;;122.37;47.27;;;2.80;99.90;;;;;;5063612;28;20201;-66
2022/01/28 08:30:55;;;;;;;148.97;49.13;;;2.80;99.90;;;;;;5065482;28;20208;-65
2022/01/28 08:33:24;;;;;;;217.10;81.43;;;2.80;99.90;;;;;;5053348;28;20747;-65
2022/01/28 08:35:54;;;;;;;198.77;75.70;;;2.80;99.90;;;;;;5060216;28;20220;-65
2022/01/28 08:38:28;;;;;;;158.70;58.83;;;2.90;99.90;;;;;;5068338;28;20195;-65
2022/01/28 08:40:59;;;;;;;118.93;48.10;;;2.90;99.90;;;;;;5060188;28;20214;-66
2022/01/28 08:43:29;;;;;;;146.90;54.53;;;2.90;99.90;;;;;;5061807;28;20547;-64
2022/01/28 08:45:58;;;;;;;130.97;50.87;;;2.90;99.90;;;;;;5068372;28;20189;-66
2022/01/28 08:48:26;;;;;;;114.23;42.53;;;3.00;99.90;;;;;;5059225;28;20207;-66
2022/01/28 08:50:55;;;;;;;101.00;39.53;;;3.00;99.90;;;;;;5058458;28;20668;-65
2022/01/28 08:53:24;;;;;;;136.20;49.03;;;3.00;99.90;;;;;;5057748;28;20216;-65
2022/01/28 08:55:53;;;;;;;109.37;40.93;;;3.00;99.90;;;;;;5061942;28;20203;-66
2022/01/28 08:58:23;;;;;;;111.10;42.17;;;3.10;99.90;;;;;;5050917;28;20288;-65
2022/01/28 09:00:53;;;;;;;99.17;40.17;;;3.20;99.90;;;;;;5063604;28;20195;-65
2022/01/28 09:03:22;;;;;;;188.40;96.77;;;3.20;99.90;;;;;;5067258;28;20200;-65
2022/01/28 09:05:51;;;;;;;126.07;44.97;;;3.30;99.90;;;;;;5059088;28;21073;-65
2022/01/28 09:08:22;;;;;;;107.37;43.27;;;3.40;99.90;;;;;;5064550;28;20195;-65
2022/01/28 09:10:59;;;;;;;122.47;45.77;;;3.50;99.90;;;;;;5058525;28;20219;-65
2022/01/28 09:13:30;;;;;;;116.50;45.17;;;3.50;99.90;;;;;;5060121;28;20219;-65
2022/01/28 09:16:00;;;;;;;123.57;44.57;;;3.60;99.90;;;;;;5059100;28;20224;-65
2022/01/28 09:18:28;;;;;;;125.33;46.47;;;3.70;99.90;;;;;;5066972;28;20204;-65
2022/01/28 09:20:58;;;;;;;98.47;41.40;;;3.80;99.90;;;;;;5058787;28;20200;-65
2022/01/28 09:23:27;;;;;;;122.03;44.57;;;3.90;99.90;;;;;;5057225;28;20199;-65
2022/01/28 09:25:55;;;;;;;131.77;46.20;;;4.00;99.90;;;;;;5055404;28;20207;-66
2022/01/28 09:28:24;;;;;;;132.00;48.13;;;3.90;99.90;;;;;;5057516;28;20235;-65
2022/01/28 09:30:53;;;;;;;318.43;101.50;;;3.90;99.90;;;;;;5064704;28;20335;-65
2022/01/28 09:33:23;;;;;;;446.40;224.90;;;3.90;99.90;;;;;;5065890;28;20212;-65
2022/01/28 09:35:54;;;;;;;561.93;216.40;;;3.90;99.90;;;;;;5068030;28;20211;-65
2022/01/28 09:38:23;;;;;;;372.90;144.77;;;4.00;99.90;;;;;;5062545;28;20574;-65
2022/01/28 09:40:52;;;;;;;443.70;135.27;;;4.00;99.90;;;;;;5062717;28;20191;-66
2022/01/28 09:43:21;;;;;;;365.93;105.70;;;4.00;99.90;;;;;;5060680;28;20266;-66
2022/01/28 09:45:49;;;;;;;199.63;61.23;;;4.00;99.90;;;;;;5058212;28;20249;-66
2022/01/28 09:48:18;;;;;;;144.20;59.50;;;4.00;99.90;;;;;;5064603;28;20192;-66
2022/01/28 09:50:49;;;;;;;90.50;35.90;;;4.00;99.90;;;;;;5060558;28;20181;-66
2022/01/28 09:53:18;;;;;;;150.27;50.13;;;4.20;99.90;;;;;;5062773;28;20199;-66
2022/01/28 09:55:50;;;;;;;77.37;33.57;;;4.20;99.90;;;;;;5058361;28;20200;-65
2022/01/28 09:58:19;;;;;;;98.23;38.10;;;4.30;99.90;;;;;;5067631;28;20554;-66
2022/01/28 10:00:48;;;;;;;106.87;39.57;;;4.40;99.90;;;;;;5060836;28;20202;-66
2022/01/28 10:03:19;;;;;;;94.87;36.47;;;4.50;99.90;;;;;;5065025;28;20203;-66
2022/01/28 10:05:51;;;;;;;98.70;37.20;;;4.50;99.90;;;;;;5068526;28;20638;-66
2022/01/28 10:08:20;;;;;;;199.80;78.53;;;4.60;99.90;;;;;;5066494;28;20200;-66
2022/01/28 10:10:55;;;;;;;127.53;44.17;;;4.70;99.90;;;;;;5070605;28;20257;-65
2022/01/28 10:13:30;;;;;;;125.77;45.30;;;4.80;99.90;;;;;;5062807;28;20191;-66
2022/01/28 10:16:13;;;;;;;109.10;37.73;;;4.90;99.90;;;;;;5060374;28;20275;-66
2022/01/28 10:18:47;;;;;;;103.47;42.57;;;5.00;99.90;;;;;;5064592;28;20274;-66
2022/01/28 10:21:23;;;;;;;83.33;35.70;;;4.90;99.90;;;;;;5069331;28;20200;-66
2022/01/28 10:24:12;;;;;;;95.27;37.37;;;4.90;99.90;;;;;;5067999;28;20319;-66
2022/01/28 10:26:45;;;;;;;108.67;41.93;;;5.00;99.90;;;;;;5063652;28;20215;-65
2022/01/28 10:29:16;;;;;;;141.07;44.77;;;5.00;99.90;;;;;;5067229;28;20250;-66
2022/01/28 10:31:48;;;;;;;222.87;85.07;;;5.00;99.90;;;;;;5069408;28;20608;-65
2022/01/28 10:34:24;;;;;;;172.57;55.53;;;5.00;99.90;;;;;;5073453;28;20251;-65
2022/01/28 10:37:09;;;;;;;250.17;88.13;;;5.10;99.90;;;;;;5063993;28;20265;-65
2022/01/28 10:39:47;;;;;;;182.20;44.70;;;5.10;99.90;;;;;;5071816;28;20188;-65
2022/01/28 10:42:34;;;;;;;208.27;40.03;;;5.10;99.90;;;;;;5054172;28;20228;-64
2022/01/28 10:45:10;;;;;;;204.27;51.27;;;5.00;99.90;;;;;;5058437;28;20189;-64
2022/01/28 10:47:41;;;;;;;246.60;54.23;;;5.00;99.90;;;;;;5072692;28;20184;-65
2022/01/28 10:50:25;;;;;;;457.80;96.20;;;5.00;99.90;;;;;;5062140;28;20204;-65
2022/01/28 10:53:06;;;;;;;221.77;67.50;;;5.00;99.90;;;;;;5059376;28;20223;-65
2022/01/28 10:55:37;;;;;;;205.37;70.63;;;5.10;99.90;;;;;;5062841;28;20273;-65
2022/01/28 10:58:08;;;;;;;196.47;52.50;;;5.20;99.90;;;;;;5068227;28;20294;-65
2022/01/28 11:00:38;;;;;;;142.93;45.00;;;5.30;99.90;;;;;;5069945;28;20212;-65
2022/01/28 11:03:09;;;;;;;152.07;45.33;;;5.20;99.90;;;;;;5063563;28;20204;-65
2022/01/28 11:05:38;;;;;;;138.00;66.67;;;5.30;99.90;;;;;;5059093;28;20216;-65
2022/01/28 11:08:11;;;;;;;99.53;35.87;;;5.40;99.90;;;;;;5063109;28;20193;-66
2022/01/28 11:10:41;;;;;;;90.77;32.67;;;5.40;99.90;;;;;;5056875;28;20193;-66
2022/01/28 11:13:10;;;;;;;95.57;33.23;;;5.50;99.90;;;;;;5055762;28;20212;-66
2022/01/28 11:15:39;;;;;;;88.90;32.43;;;5.50;99.90;;;;;;5056564;28;20295;-65
2022/01/28 11:18:10;;;;;;;94.73;32.30;;;5.40;99.90;;;;;;5065614;28;20204;-66
2022/01/28 11:20:44;;;;;;;118.87;36.00;;;5.40;99.90;;;;;;5062848;28;20192;-66
2022/01/28 11:23:26;;;;;;;112.23;33.50;;;5.30;99.90;;;;;;5065600;28;20184;-66
2022/01/28 11:26:07;;;;;;;71.23;30.23;;;5.30;99.90;;;;;;5065047;28;20203;-65
2022/01/28 11:28:40;;;;;;;106.63;33.17;;;5.30;99.90;;;;;;5066299;28;20427;-66
2022/01/28 11:31:10;;;;;;;78.17;31.07;;;5.40;99.90;;;;;;5058767;28;20284;-66
2022/01/28 11:33:50;;;;;;;84.33;28.87;;;5.40;99.90;;;;;;5055020;28;20605;-65
2022/01/28 11:36:33;;;;;;;124.77;32.93;;;5.30;99.90;;;;;;5061279;28;20248;-66
2022/01/28 11:39:09;;;;;;;76.43;29.50;;;5.20;99.90;;;;;;5058282;28;20223;-66
2022/01/28 11:41:58;;;;;;;76.23;29.83;;;5.20;99.90;;;;;;5060644;28;20196;-66
2022/01/28 11:44:42;;;;;;;64.50;31.07;;;5.30;99.90;;;;;;5064434;28;20314;-66
2022/01/28 11:47:14;;;;;;;98.20;29.90;;;5.40;99.90;;;;;;5066346;28;20208;-66
2022/01/28 11:49:54;;;;;;;85.40;31.50;;;5.40;99.90;;;;;;5058883;28;20760;-66
2022/01/28 11:52:27;;;;;;;104.97;35.47;;;5.30;99.90;;;;;;5059120;28;20203;-66
2022/01/28 11:54:58;;;;;;;91.57;30.50;;;5.20;99.90;;;;;;5051509;28;20219;-66
2022/01/28 11:57:27;;;;;;;94.73;30.93;;;5.30;99.90;;;;;;5058074;28;20196;-66
2022/01/28 12:00:22;;;;;;;86.47;30.63;;;5.40;99.90;;;;;;5058853;28;20791;-65
2022/01/28 12:03:17;;;;;;;84.40;30.13;;;5.30;99.90;;;;;;5060618;28;20262;-65
2022/01/28 12:05:54;;;;;;;87.97;28.43;;;5.20;99.90;;;;;;5061311;28;20658;-65
2022/01/28 12:08:28;;;;;;;82.00;28.13;;;5.30;99.90;;;;;;5059633;28;20191;-66
2022/01/28 12:11:00;;;;;;;72.87;28.03;;;5.20;99.90;;;;;;5058980;28;20282;-66
2022/01/28 12:13:47;;;;;;;67.17;25.33;;;5.20;99.90;;;;;;5063051;28;20200;-65
2022/01/28 12:16:26;;;;;;;58.83;24.20;;;5.20;99.90;;;;;;5054858;28;20204;-66
2022/01/28 12:18:57;;;;;;;74.10;24.40;;;5.20;99.90;;;;;;5057677;28;20203;-66
2022/01/28 12:21:27;;;;;;;58.20;23.43;;;5.20;99.90;;;;;;5049868;28;20191;-65
2022/01/28 12:24:17;;;;;;;71.60;26.13;;;5.30;99.90;;;;;;5060003;28;20196;-66
2022/01/28 12:27:02;;;;;;;70.87;25.23;;;5.40;99.90;;;;;;5059602;28;20358;-66
2022/01/28 12:29:32;;;;;;;64.87;25.63;;;5.30;99.90;;;;;;5049659;28;20284;-65
2022/01/28 12:32:05;;;;;;;69.77;23.60;;;5.30;99.90;;;;;;5054596;28;20204;-66
2022/01/28 12:34:34;;;;;;;84.10;25.47;;;5.30;99.90;;;;;;5053650;28;20192;-65
2022/01/28 12:37:03;;;;;;;121.33;25.93;;;5.30;99.90;;;;;;5077821;28;20196;-66
2022/01/28 12:39:38;;;;;;;60.10;26.80;;;5.30;99.90;;;;;;5064379;28;20208;-65
2022/01/28 12:42:22;;;;;;;67.83;25.10;;;5.40;99.90;;;;;;5057803;28;20204;-65
2022/01/28 12:44:52;;;;;;;71.10;25.17;;;5.50;99.90;;;;;;5052993;28;20236;-66
2022/01/28 12:47:22;;;;;;;58.83;23.00;;;5.50;99.90;;;;;;5058541;28;20254;-65
2022/01/28 12:49:55;;;;;;;100.07;29.13;;;5.50;99.90;;;;;;5059148;28;20244;-66
2022/01/28 12:52:24;;;;;;;75.33;26.70;;;5.50;99.90;;;;;;5056094;28;20189;-66
2022/01/28 12:54:53;;;;;;;87.03;25.43;;;5.50;99.90;;;;;;5059213;28;20199;-66
2022/01/28 12:57:23;;;;;;;69.10;25.43;;;5.50;99.90;;;;;;5059500;28;20268;-66
2022/01/28 12:59:52;;;;;;;72.67;27.07;;;5.40;99.90;;;;;;5060483;28;20210;-65
2022/01/28 13:02:21;;;;;;;87.47;26.33;;;5.50;99.90;;;;;;5060310;28;20184;-66
2022/01/28 13:05:12;;;;;;;76.63;25.70;;;5.50;99.90;;;;;;5062803;28;20232;-66
2022/01/28 13:10:40;;;;;;;69.03;21.70;;;5.60;99.90;;;;;;4997651;28;20245;-65
2022/01/28 13:13:11;;;;;;;77.47;25.97;;;5.70;99.90;;;;;;5045663;28;20694;-65
2022/01/28 13:15:41;;;;;;;85.37;26.40;;;5.70;99.90;;;;;;5072770;28;20199;-66
2022/01/28 13:18:10;;;;;;;114.67;42.10;;;5.60;99.90;;;;;;5059974;28;20262;-66
2022/01/28 13:20:40;;;;;;;85.30;27.87;;;5.70;99.90;;;;;;5054461;28;20212;-65
2022/01/28 13:23:10;;;;;;;95.00;31.97;;;5.70;99.90;;;;;;5064533;28;20658;-66
2022/01/28 13:25:40;;;;;;;99.97;32.53;;;5.80;99.90;;;;;;5055865;28;20272;-65
2022/01/28 13:28:19;;;;;;;95.10;33.00;;;5.90;99.90;;;;;;5050523;28;20215;-66
2022/01/28 13:30:55;;;;;;;88.57;32.63;;;5.90;99.90;;;;;;5052512;28;20215;-66
2022/01/28 13:33:28;;;;;;;96.27;30.67;;;6.00;99.90;;;;;;5049210;28;20192;-66
2022/01/28 13:36:00;;;;;;;85.77;29.83;;;6.00;99.90;;;;;;5063493;28;20223;-66
2022/01/28 13:38:35;;;;;;;100.07;34.60;;;6.10;99.90;;;;;;5059760;28;20278;-66
2022/01/28 13:41:19;;;;;;;101.97;38.83;;;6.20;99.90;;;;;;5071012;28;20289;-66
2022/01/28 13:43:49;;;;;;;96.77;35.33;;;6.30;99.90;;;;;;5044570;28;20289;-65
2022/01/28 13:46:20;;;;;;;90.03;31.07;;;6.30;99.90;;;;;;5062535;28;20188;-66
2022/01/28 13:48:48;;;;;;;87.83;31.27;;;6.40;99.90;;;;;;5054219;28;20204;-66
2022/01/28 13:51:21;;;;;;;97.47;32.93;;;6.40;99.90;;;;;;5064095;28;20207;-65
2022/01/28 13:54:18;;;;;;;99.77;35.37;;;6.50;99.90;;;;;;5070773;28;20781;-66
2022/01/28 13:56:48;;;;;;;99.80;36.47;;;6.50;99.90;;;;;;5059656;28;20291;-66
2022/01/28 13:59:23;;;;;;;102.90;36.73;;;6.60;99.90;;;;;;5057708;28;20198;-66
2022/01/28 14:01:54;;;;;;;113.50;36.47;;;6.60;99.90;;;;;;5051345;28;20196;-66
2022/01/28 14:04:27;;;;;;;110.00;39.90;;;6.60;99.90;;;;;;5055106;28;20189;-65
2022/01/28 14:07:10;;;;;;;105.13;37.20;;;6.60;99.90;;;;;;5058219;28;20196;-66